AirNav   Everest Fuels
 
 839 users online  

F88 Jonesboro Airport
Jonesboro, Louisiana, USA

GOING TO JONESBORO?


FAA INFORMATION EFFECTIVE 23 MAY 2019

Location

FAA Identifier: F88
Lat/Long: 32-12-07.2000N / 092-43-58.6000W
32-12.120000N / 092-43.976667W
32.2020000 / -92.7329444
(estimated)
Elevation: 255.6 ft. / 77.9 m (surveyed)
Variation: 01E (2010)
From city: 3 miles S of JONESBORO, LA
Time zone: UTC -5 (UTC -6 during Standard Time)
Zip code: 71251

Airport Operations

Airport use: Open to the public
Activation date: 03/1964
Control tower: no
ARTCC: FORT WORTH CENTER
FSS: DE RIDDER FLIGHT SERVICE STATION
NOTAMs facility: DRI (NOTAM-D service available)
Attendance: UNATNDD
Wind indicator: lighted, LIGHTED WINDSOCK AT MIDFIELD.
Segmented circle: yes
Lights: REIL RWYS 18 & 36 AND MIRL RWY 18/36, PRESET LOW INTST; TO INCR INTST ACTVT - CTAF. PAPI RWY 36 OTS INDEFLY.
Beacon: white-green (lighted land airport)
Operates sunset to sunrise.

Airport Communications

CTAF: 122.9
MONROE APPROACH: 126.9
MONROE DEPARTURE: 126.9
  • APCH/DEP SVC PRVDD BY FORT WORTH ARTCC ON FREQS 126.325/346.25 (MONROE RCAG) WHEN MONROE APCH CTL CLSD.

Nearby radio navigation aids

VOR radial/distance  VOR name  Freq  Var
SWBr346/14.0SAWMILL VOR/DME113.7502E

 
NDB name  Hdg/Dist  Freq  Var  ID
RUSTON194/25.536803EROQ .-. --- --.-
NATCHITOCHES024/37.140704EOOC --- --- -.-.

Airport Services

Parking: tiedowns
Airframe service: NONE
Powerplant service: NONE
Bottled oxygen: NONE
Bulk oxygen: NONE

Runway Information

Runway 18/36

Dimensions: 3204 x 75 ft. / 977 x 23 m
Surface: asphalt, in good condition
Weight bearing capacity: 
Single wheel: 28.0
Runway edge lights: medium intensity
RUNWAY 18  RUNWAY 36
Latitude: 32-12.383912N32-11.855510N
Longitude: 092-43.980422W092-43.971602W
Elevation: 248.7 ft.255.5 ft.
Traffic pattern: leftleft
Runway heading: 178 magnetic, 179 true358 magnetic, 359 true
Markings: nonprecision, in good conditionnonprecision, in good condition
Visual slope indicator: 2-light PAPI on left (3.00 degrees glide path)2-light PAPI on left (3.00 degrees glide path)
Runway end identifier lights: yesyes
Touchdown point: yes, no lightsyes, no lights
Obstructions: 61 ft. trees, 1221 ft. from runway, 85 ft. left of centerline, 16:1 slope to clear57 ft. trees, 1254 ft. from runway, 408 ft. right of centerline, 18:1 slope to clear

Airport Ownership and Management from official FAA records

Ownership: Publicly-owned
Owner: CITY OF JONESBORO
128 ALLEN AVE
JONESBORO, LA 71251
Phone 318-259-2385
Manager: DENNIS HOOD
128 ALLEN AVE
JONESBORO, LA 71251
Phone (318) 245-0149

Airport Operational Statistics

Aircraft based on the field: 8
Single engine airplanes: 8
    
Aircraft operations: avg 115/week *
67% transient general aviation
33% local general aviation
* for 12-month period ending 19 December 2018

Additional Remarks

DEER AND WILDLIFE ON & INVOF ARPT.
SOUTH HOLD LINE NSTD DISTANCE FM RY CNTRLN.
FOR CD CTC MONROE APCH AT 318-327-5641, IF UNAVBL, CTC FSS.

Instrument Procedures

NOTE: All procedures below are presented as PDF files. If you need a reader for these files, you should download the free Adobe Reader.

NOT FOR NAVIGATION. Please procure official charts for flight.
FAA instrument procedures published for use from 23 May 2019 at 0901Z to 20 June 2019 at 0900Z.

 
IAPs - Instrument Approach Procedures
RNAV (GPS) RWY 18 **CHANGED**   download (179KB)
RNAV (GPS) RWY 36 **CHANGED**   download (193KB)
NOTE: Special Take-Off Minimums/Departure Procedures apply   download (116KB)

Other nearby airports with instrument procedures:

0R5 - David G Joyce Airport (15 nm S)
KRSN - Ruston Regional Airport (20 nm N)
0R7 - The Red River Airport (32 nm SW)
KIER - Natchitoches Regional Airport (34 nm SW)
KMNE - Minden Airport (39 nm NW)
 
Loc | Ops | Rwys | IFR | FBO | Links
Com | Nav | Svcs | Stats | Notes
Area around F88 (Jonesboro Airport)
 
Road maps at: MapQuest Bing Google
 
Aerial photo
WARNING: Photo may not be current or correct
Aerial photo of F88 (Jonesboro Airport)
Photo by Ken DeSoto
Photo taken 15-Apr-2014
looking south.

Do you have a better or more recent aerial photo of Jonesboro Airport that you would like to share? If so, please send us your photo.

 
Sectional chart

 
Airport distance calculator
Flying to Jonesboro Airport? Find the distance to fly.

From to F88

Sunrise and sunset
Times for 15-Jun-2019
 Local
(UTC-5)
 Zulu
(UTC)
Morning civil twilight05:3710:37
Sunrise06:0511:05
Sunset20:1801:18
Evening civil twilight20:4601:46

Current date and time
Zulu (UTC)  16-Jun-2019 00:14:42
Local (UTC-5)  15-Jun-2019 19:14:42
 
METAR
KRSN 
20nm N 
152355Z AUTO 23003KT 10SM VCTS CLR 26/18 A2996 RMK AO2 LTG DSNT SE W AND NW T02570184 10334 20257
KIER 
34nm SW 
152355Z AUTO 18007KT 10SM CLR 30/24 A2992 RMK AO2 T03010238 10349 20301
KMNE 
39nm NW 
152355Z AUTO 14010G14KT 10SM SCT060 SCT070 SCT080 30/21 A2990 RMK AO2 LTG DSNT NE E AND W T02970210 10347 20297
KMLU 
40nm NE 
152353Z 21008KT 10SM CLR 27/19 A2992 RMK AO2 SLP131 T02670194 10339 20267 50001
TAF
KMLU 
40nm NE 
151720Z 1518/1618 19012G19KT P6SM SCT030 BKN050 FM160100 17009KT P6SM FEW040 SCT060 FM160900 20007KT P6SM OVC015 FM161600 22009KT P6SM BKN050
NOTAMs
Click for the latest NOTAMs
NOTAMs are issued by the DoD/FAA and will open in a separate window not controlled by AirNav.

 

 
 

Would you like to see your business listed on this page?

 If your business provides an interesting product or service to pilots, flight crews, aircraft, or users of the Jonesboro Airport, you should consider listing it here.  To start the listing process, click on the button below
 
Add a business
 

Other Pages about Jonesboro Airport

Update a link
 
Copyright © AirNav, LLC. All rights reserved. Privacy Policy  Contact